Time;durP1;ratioP1;P1;durP2;ratioP2;P2;SDS_P1;SDS_P2;PMS_P1;PMS_P2;Temp;Humidity;BMP_temperature;BMP_pressure;BME280_temperature;BME280_humidity;BME280_pressure;Samples;Min_cycle;Max_cycle;Signal;HPM_P1;HPM_P2
2023/12/25 00:00:15;;;;;;;14.13;5.43;;;11.90;99.90;;;;;;5080488;28;20150;-83
2023/12/25 00:02:40;;;;;;;11.95;5.00;;;11.80;99.90;;;;;;5077073;28;20042;-84
2023/12/25 00:05:06;;;;;;;13.50;6.65;;;11.80;99.90;;;;;;5075410;28;20071;-83
2023/12/25 00:07:32;;;;;;;17.10;6.45;;;11.90;99.90;;;;;;5072404;28;20048;-82
2023/12/25 00:09:57;;;;;;;22.75;16.80;;;11.90;99.90;;;;;;5076321;28;20032;-84
2023/12/25 00:12:23;;;;;;;17.95;12.95;;;11.90;99.90;;;;;;5080033;28;20501;-84
2023/12/25 00:14:49;;;;;;;16.48;5.57;;;11.90;99.90;;;;;;5061437;28;20042;-83
2023/12/25 00:17:15;;;;;;;18.83;9.98;;;11.90;99.90;;;;;;5079906;28;20054;-84
2023/12/25 00:19:41;;;;;;;15.70;6.00;;;11.90;99.90;;;;;;5077269;28;20055;-86
2023/12/25 00:22:07;;;;;;;14.73;5.65;;;11.90;99.90;;;;;;5071981;28;20050;-84
2023/12/25 00:24:33;;;;;;;15.10;5.60;;;11.90;99.90;;;;;;5077761;28;20032;-85
2023/12/25 00:26:58;;;;;;;15.60;5.47;;;11.80;99.90;;;;;;5077919;28;20399;-82
2023/12/25 00:29:24;;;;;;;12.45;4.82;;;11.90;99.90;;;;;;5077034;28;20119;-83
2023/12/25 00:31:49;;;;;;;17.38;5.68;;;11.90;99.90;;;;;;5082893;28;20040;-85
2023/12/25 00:34:15;;;;;;;12.20;5.30;;;11.90;99.90;;;;;;5080510;28;20569;-84
2023/12/25 00:36:41;;;;;;;14.38;4.85;;;11.90;99.90;;;;;;5081589;28;20036;-83
2023/12/25 00:39:07;;;;;;;14.55;5.40;;;11.90;99.90;;;;;;5077505;28;20378;-83
2023/12/25 00:41:33;;;;;;;10.80;4.75;;;11.90;99.90;;;;;;5077679;28;20048;-85
2023/12/25 00:43:59;;;;;;;12.55;6.13;;;11.90;99.90;;;;;;5074521;28;20538;-84
2023/12/25 00:46:25;;;;;;;11.73;7.65;;;11.90;99.90;;;;;;5077111;28;20043;-84
2023/12/25 00:48:50;;;;;;;13.23;5.28;;;11.90;99.90;;;;;;5055311;28;20072;-84
2023/12/25 00:51:16;;;;;;;12.30;4.35;;;11.90;99.90;;;;;;5073800;28;20051;-82
2023/12/25 00:53:41;;;;;;;11.48;5.82;;;12.00;99.90;;;;;;5076722;28;20555;-85
2023/12/25 00:56:08;;;;;;;9.25;5.35;;;11.90;99.90;;;;;;5071532;28;20050;-85
2023/12/25 00:58:34;;;;;;;11.15;4.85;;;11.90;99.90;;;;;;5082341;28;20036;-82
2023/12/25 01:01:00;;;;;;;13.15;4.90;;;11.80;99.90;;;;;;5070139;28;20530;-83
2023/12/25 01:03:25;;;;;;;10.43;7.60;;;11.80;99.90;;;;;;5074181;28;20036;-86
2023/12/25 01:05:51;;;;;;;12.00;8.80;;;11.80;99.90;;;;;;5077215;28;20057;-84
2023/12/25 01:08:17;;;;;;;10.73;7.43;;;11.90;99.90;;;;;;5051329;28;20485;-84
2023/12/25 01:10:42;;;;;;;10.32;4.75;;;11.90;99.90;;;;;;5075233;28;20257;-83
2023/12/25 01:13:08;;;;;;;12.88;6.40;;;11.90;99.90;;;;;;5079491;28;20044;-82
2023/12/25 01:15:34;;;;;;;34.25;31.75;;;11.80;99.90;;;;;;5072021;28;20132;-84
2023/12/25 01:17:59;;;;;;;7.18;4.00;;;11.80;99.90;;;;;;5055649;28;20105;-82
2023/12/25 01:20:25;;;;;;;7.45;5.65;;;11.80;99.90;;;;;;5072543;28;20044;-85
2023/12/25 01:22:51;;;;;;;11.07;6.05;;;11.80;99.90;;;;;;5073704;28;20063;-85
2023/12/25 01:25:16;;;;;;;12.20;8.05;;;11.70;99.90;;;;;;5083340;28;20044;-85
2023/12/25 01:27:42;;;;;;;11.02;8.88;;;11.70;99.90;;;;;;5076730;28;20041;-84
2023/12/25 01:30:11;;;;;;;11.23;8.40;;;11.70;99.90;;;;;;5068834;28;20047;-85
2023/12/25 01:32:37;;;;;;;9.65;7.07;;;11.80;99.90;;;;;;5080997;28;20043;-85
2023/12/25 01:35:04;;;;;;;10.10;4.40;;;11.70;99.90;;;;;;5078965;28;20369;-85
2023/12/25 01:37:29;;;;;;;9.60;3.80;;;11.70;99.90;;;;;;5083460;28;20333;-81
2023/12/25 01:39:55;;;;;;;8.07;3.95;;;11.70;99.90;;;;;;5078803;28;20059;-83
2023/12/25 01:42:21;;;;;;;13.32;9.20;;;11.60;99.90;;;;;;5083829;28;20047;-86
2023/12/25 01:44:47;;;;;;;11.93;4.28;;;11.50;99.90;;;;;;5056113;28;20036;-83
2023/12/25 01:47:15;;;;;;;14.35;12.55;;;11.50;99.90;;;;;;5080237;28;20039;-86
2023/12/25 01:49:41;;;;;;;14.48;5.13;;;11.50;99.90;;;;;;5077669;28;20060;-85
2023/12/25 01:52:07;;;;;;;18.48;16.52;;;11.50;99.90;;;;;;5063783;28;20036;-85
2023/12/25 01:54:34;;;;;;;14.63;4.50;;;11.50;99.90;;;;;;5060503;28;20032;-83
2023/12/25 01:57:00;;;;;;;11.80;4.75;;;11.40;99.90;;;;;;5055902;28;20405;-84
2023/12/25 01:59:29;;;;;;;8.68;3.95;;;11.40;99.90;;;;;;5080318;28;20560;-83
2023/12/25 02:01:57;;;;;;;11.10;9.63;;;11.40;99.90;;;;;;5081406;28;20562;-82
2023/12/25 02:04:23;;;;;;;13.40;11.90;;;11.40;99.90;;;;;;5082823;28;20387;-86
2023/12/25 02:06:50;;;;;;;10.85;6.75;;;11.40;99.90;;;;;;5073806;28;20120;-83
2023/12/25 02:09:16;;;;;;;11.70;7.50;;;11.40;99.90;;;;;;5078528;28;20043;-85
2023/12/25 02:11:41;;;;;;;11.70;5.05;;;11.30;99.90;;;;;;5081570;28;20028;-82
2023/12/25 02:14:09;;;;;;;13.95;7.00;;;11.30;99.90;;;;;;5076555;28;20459;-82
2023/12/25 02:16:36;;;;;;;14.18;5.38;;;11.30;99.90;;;;;;5078128;28;20055;-82
2023/12/25 02:19:05;;;;;;;10.45;4.43;;;11.30;99.90;;;;;;5074377;28;20461;-81
2023/12/25 02:21:31;;;;;;;13.40;4.35;;;11.20;99.90;;;;;;5081780;28;20047;-85
2023/12/25 02:23:59;;;;;;;12.48;4.65;;;11.10;99.90;;;;;;5077280;28;20048;-84
2023/12/25 02:26:25;;;;;;;16.38;4.60;;;11.10;99.90;;;;;;5086705;28;20040;-83
2023/12/25 02:28:51;;;;;;;13.02;4.70;;;11.20;99.90;;;;;;5075789;28;20043;-83
2023/12/25 02:31:17;;;;;;;14.70;4.82;;;11.10;99.90;;;;;;5077165;28;20036;-83
2023/12/25 02:33:42;;;;;;;11.35;4.53;;;11.10;99.90;;;;;;5079338;28;20036;-83
2023/12/25 02:36:08;;;;;;;14.80;5.07;;;11.20;99.90;;;;;;5079309;28;20504;-82
2023/12/25 02:38:34;;;;;;;12.68;5.05;;;11.20;99.90;;;;;;5080571;28;20046;-83
2023/12/25 02:40:59;;;;;;;12.55;4.90;;;11.30;99.90;;;;;;5082976;28;20044;-81
2023/12/25 02:43:25;;;;;;;12.20;5.88;;;11.20;99.90;;;;;;5073945;28;20044;-85
2023/12/25 02:45:51;;;;;;;15.10;5.15;;;11.30;99.90;;;;;;5078118;28;20538;-83
2023/12/25 02:48:16;;;;;;;10.98;6.00;;;11.20;99.90;;;;;;5073430;28;20052;-85
2023/12/25 02:50:42;;;;;;;9.55;4.25;;;11.20;99.90;;;;;;5076077;28;20036;-83
2023/12/25 02:53:08;;;;;;;18.63;7.20;;;11.30;99.90;;;;;;5073257;28;20838;-84
2023/12/25 02:55:33;;;;;;;10.07;5.55;;;11.40;99.90;;;;;;5075705;28;20773;-84
2023/12/25 02:57:59;;;;;;;11.70;4.65;;;11.40;99.90;;;;;;5074159;28;20048;-82
2023/12/25 03:00:24;;;;;;;13.30;8.60;;;11.40;99.90;;;;;;5074040;28;20040;-83
2023/12/25 03:02:50;;;;;;;8.00;5.00;;;11.40;99.90;;;;;;5076564;28;20052;-83
2023/12/25 03:05:16;;;;;;;13.32;4.53;;;11.40;99.90;;;;;;5072359;28;20165;-82
2023/12/25 03:07:41;;;;;;;13.73;4.90;;;11.40;99.90;;;;;;5073144;28;20115;-86
2023/12/25 03:10:07;;;;;;;84.40;78.72;;;11.30;99.90;;;;;;5077345;28;20032;-85
2023/12/25 03:12:33;;;;;;;13.25;5.03;;;11.40;99.90;;;;;;5071874;28;20063;-84
2023/12/25 03:14:58;;;;;;;10.18;4.45;;;11.40;99.90;;;;;;5072201;28;20040;-82
2023/12/25 03:17:24;;;;;;;17.00;15.38;;;11.40;99.90;;;;;;5077141;28;20044;-86
2023/12/25 03:19:50;;;;;;;41.83;38.88;;;11.50;99.90;;;;;;5068936;28;20040;-86
2023/12/25 03:22:15;;;;;;;14.43;4.78;;;11.40;99.90;;;;;;5062598;28;20048;-83
2023/12/25 03:24:41;;;;;;;38.28;34.90;;;11.40;99.90;;;;;;5059098;28;20091;-84
2023/12/25 03:27:06;;;;;;;10.48;4.60;;;11.40;99.90;;;;;;5074704;28;20385;-86
2023/12/25 03:29:32;;;;;;;11.85;4.65;;;11.40;99.90;;;;;;5071966;28;20069;-82
2023/12/25 03:31:57;;;;;;;26.02;23.83;;;11.30;99.90;;;;;;5075500;28;20036;-86
2023/12/25 03:34:23;;;;;;;8.48;5.43;;;11.30;99.90;;;;;;5057017;28;20485;-86
2023/12/25 03:36:49;;;;;;;13.48;4.72;;;11.30;99.90;;;;;;5076556;28;20067;-84
2023/12/25 03:39:14;;;;;;;12.43;5.60;;;11.30;99.90;;;;;;5057692;28;20044;-84
2023/12/25 03:41:40;;;;;;;11.00;4.40;;;11.30;99.90;;;;;;5070876;28;20142;-85
2023/12/25 03:44:05;;;;;;;13.93;4.32;;;11.20;99.90;;;;;;5075045;28;20031;-83
2023/12/25 03:46:31;;;;;;;14.43;5.55;;;11.20;99.90;;;;;;5075231;28;20567;-84
2023/12/25 03:48:57;;;;;;;15.70;5.32;;;11.20;99.90;;;;;;5079702;28;20049;-83
2023/12/25 03:51:22;;;;;;;26.63;24.33;;;11.20;99.90;;;;;;5058169;28;20055;-86
2023/12/25 03:53:48;;;;;;;15.75;5.05;;;11.20;99.90;;;;;;5082206;28;20044;-82
2023/12/25 03:56:17;;;;;;;31.85;29.20;;;11.30;99.90;;;;;;5077908;28;20032;-84
2023/12/25 03:58:44;;;;;;;10.75;5.20;;;11.30;99.90;;;;;;5075258;28;20489;-82
2023/12/25 04:01:10;;;;;;;15.00;5.78;;;11.30;99.90;;;;;;5071354;28;20040;-86
2023/12/25 04:03:36;;;;;;;7.07;4.05;;;11.40;99.90;;;;;;5077739;28;20051;-83
2023/12/25 04:06:02;;;;;;;14.45;8.98;;;11.30;99.90;;;;;;5078385;28;20485;-85
2023/12/25 04:08:27;;;;;;;11.95;8.93;;;11.30;99.90;;;;;;5073890;28;20032;-83
2023/12/25 04:10:53;;;;;;;12.52;4.70;;;11.30;99.90;;;;;;5075438;28;20610;-85
2023/12/25 04:13:19;;;;;;;20.48;17.20;;;11.30;99.90;;;;;;5076259;28;20040;-83
2023/12/25 04:15:44;;;;;;;13.07;4.88;;;11.30;99.90;;;;;;5080985;28;20119;-83
2023/12/25 04:18:10;;;;;;;13.13;5.22;;;11.30;99.90;;;;;;5075764;28;20032;-83
2023/12/25 04:20:36;;;;;;;20.70;10.43;;;11.20;99.90;;;;;;5077278;28;20454;-84
2023/12/25 04:23:01;;;;;;;19.75;6.85;;;11.20;99.90;;;;;;5074210;28;20140;-85
2023/12/25 04:25:27;;;;;;;10.68;4.72;;;11.20;99.90;;;;;;5057819;28;20492;-85
2023/12/25 04:27:52;;;;;;;14.27;5.20;;;11.20;99.90;;;;;;5075817;28;20052;-83
2023/12/25 04:30:18;;;;;;;15.55;5.93;;;11.20;99.90;;;;;;5074613;28;20488;-83
2023/12/25 04:32:44;;;;;;;13.25;4.93;;;11.20;99.90;;;;;;5075856;28;20054;-81
2023/12/25 04:35:09;;;;;;;14.68;7.00;;;11.20;99.90;;;;;;5078784;28;20039;-86
2023/12/25 04:37:35;;;;;;;52.85;48.75;;;11.20;99.90;;;;;;5076711;28;20067;-84
2023/12/25 04:40:00;;;;;;;14.70;4.78;;;11.20;99.90;;;;;;5070698;28;20043;-82
2023/12/25 04:42:26;;;;;;;12.80;5.55;;;11.20;99.90;;;;;;5074632;28;20040;-82
2023/12/25 04:44:51;;;;;;;15.85;5.00;;;11.20;99.90;;;;;;5073718;28;20075;-83
2023/12/25 04:47:17;;;;;;;26.75;24.30;;;11.20;99.90;;;;;;5057023;28;20044;-83
2023/12/25 04:49:43;;;;;;;10.93;5.53;;;11.20;99.90;;;;;;5059019;28;20098;-81
2023/12/25 04:52:08;;;;;;;14.27;5.47;;;11.20;99.90;;;;;;5074477;28;20097;-84
2023/12/25 04:54:34;;;;;;;13.15;6.43;;;11.10;99.90;;;;;;5078777;28;21093;-81
2023/12/25 04:56:59;;;;;;;16.63;4.90;;;11.00;99.90;;;;;;5074939;28;20068;-81
2023/12/25 04:59:26;;;;;;;13.32;5.57;;;10.90;99.90;;;;;;5076466;28;20040;-81
2023/12/25 05:01:53;;;;;;;11.60;5.68;;;10.90;99.90;;;;;;5074298;28;20029;-82
2023/12/25 05:04:19;;;;;;;14.07;6.10;;;10.80;99.90;;;;;;5079416;28;20048;-81
2023/12/25 05:06:45;;;;;;;12.57;5.93;;;10.80;99.90;;;;;;5079846;28;20547;-83
2023/12/25 05:09:11;;;;;;;16.35;5.63;;;10.80;99.90;;;;;;5080116;28;20032;-82
2023/12/25 05:11:36;;;;;;;15.70;5.32;;;10.80;99.90;;;;;;5077719;28;20565;-83
2023/12/25 05:14:02;;;;;;;11.25;4.68;;;10.80;99.90;;;;;;5080304;28;20040;-84
2023/12/25 05:16:28;;;;;;;11.32;6.10;;;10.80;99.90;;;;;;5075348;28;20028;-82
2023/12/25 05:18:53;;;;;;;16.23;5.07;;;10.80;99.90;;;;;;5083876;28;20040;-82
2023/12/25 05:21:19;;;;;;;13.43;4.90;;;10.80;99.90;;;;;;5062179;28;20093;-82
2023/12/25 05:23:44;;;;;;;20.05;5.47;;;10.70;99.90;;;;;;5079919;28;20063;-81
2023/12/25 05:26:10;;;;;;;19.05;5.88;;;10.70;99.90;;;;;;5081754;28;20047;-82
2023/12/25 05:28:35;;;;;;;18.23;5.35;;;10.60;99.90;;;;;;5058431;28;20118;-85
2023/12/25 05:31:01;;;;;;;15.25;5.60;;;10.60;99.90;;;;;;5063172;28;20532;-85
2023/12/25 05:33:27;;;;;;;15.32;5.50;;;10.60;99.90;;;;;;5079498;28;20048;-85
2023/12/25 05:35:52;;;;;;;15.63;5.22;;;10.60;99.90;;;;;;5078703;28;20400;-82
2023/12/25 05:38:18;;;;;;;16.80;11.93;;;10.60;99.90;;;;;;5083379;28;21491;-83
2023/12/25 05:40:44;;;;;;;17.85;6.20;;;10.60;99.90;;;;;;5083284;28;20071;-83
2023/12/25 05:43:10;;;;;;;16.13;8.10;;;10.60;99.90;;;;;;5078707;28;20114;-82
2023/12/25 05:45:38;;;;;;;11.88;8.95;;;10.60;99.90;;;;;;5078932;28;20105;-83
2023/12/25 05:48:04;;;;;;;15.27;5.85;;;10.50;99.90;;;;;;5081120;28;20065;-84
2023/12/25 05:50:30;;;;;;;28.75;26.08;;;10.50;99.90;;;;;;5081049;28;20043;-86
2023/12/25 05:52:55;;;;;;;12.95;5.22;;;10.50;99.90;;;;;;5085191;28;20048;-82
2023/12/25 05:55:21;;;;;;;16.05;5.72;;;10.40;99.90;;;;;;5074956;28;20049;-86
2023/12/25 05:57:47;;;;;;;15.75;6.32;;;10.40;99.90;;;;;;5081409;28;20032;-83
2023/12/25 06:00:13;;;;;;;14.35;5.00;;;10.30;99.90;;;;;;5081241;28;20411;-83
2023/12/25 06:02:39;;;;;;;14.82;5.60;;;10.30;99.90;;;;;;5078188;28;20091;-83
2023/12/25 06:05:05;;;;;;;17.75;5.82;;;10.30;99.90;;;;;;5079097;28;20119;-81
2023/12/25 06:07:30;;;;;;;14.63;5.63;;;10.30;99.90;;;;;;5081529;28;20381;-82
2023/12/25 06:09:56;;;;;;;10.30;4.80;;;10.30;99.90;;;;;;5078102;28;20051;-81
2023/12/25 06:12:21;;;;;;;16.70;5.68;;;10.50;99.90;;;;;;5073676;28;20037;-83
2023/12/25 06:14:47;;;;;;;15.57;10.35;;;10.40;99.90;;;;;;5083796;28;20430;-83
2023/12/25 06:17:13;;;;;;;15.38;10.98;;;10.40;99.90;;;;;;5081680;28;20560;-83
2023/12/25 06:19:38;;;;;;;12.60;4.85;;;10.50;99.90;;;;;;5081026;28;20799;-81
2023/12/25 06:22:04;;;;;;;14.32;5.50;;;10.50;99.90;;;;;;5078007;28;20045;-81
2023/12/25 06:24:29;;;;;;;20.70;11.45;;;10.50;99.90;;;;;;5086885;28;20032;-81
2023/12/25 06:26:55;;;;;;;14.75;5.07;;;10.40;99.90;;;;;;5082839;28;20488;-82
2023/12/25 06:29:21;;;;;;;12.38;5.07;;;10.40;99.90;;;;;;5084249;28;20436;-81
2023/12/25 06:31:49;;;;;;;17.33;5.57;;;10.40;99.90;;;;;;5078491;28;20120;-82
2023/12/25 06:34:14;;;;;;;13.35;5.72;;;10.30;99.90;;;;;;5062405;28;20546;-81
2023/12/25 06:36:40;;;;;;;11.98;5.25;;;10.30;99.90;;;;;;5064344;28;20040;-82
2023/12/25 06:39:06;;;;;;;11.25;4.95;;;10.40;99.90;;;;;;5083230;28;20040;-82
2023/12/25 06:41:31;;;;;;;13.82;5.18;;;10.40;99.90;;;;;;5081087;28;20535;-81
2023/12/25 06:43:57;;;;;;;13.52;5.28;;;10.40;99.90;;;;;;5077229;28;20392;-83
2023/12/25 06:46:23;;;;;;;14.13;5.75;;;10.40;99.90;;;;;;5079318;28;20032;-85
2023/12/25 06:48:48;;;;;;;16.33;5.45;;;10.40;99.90;;;;;;5071442;28;20070;-82
2023/12/25 06:51:14;;;;;;;15.35;5.85;;;10.40;99.90;;;;;;5067485;28;20040;-84
2023/12/25 06:53:40;;;;;;;20.33;17.98;;;10.30;99.90;;;;;;5090088;28;20032;-84
2023/12/25 06:56:07;;;;;;;14.13;5.63;;;10.30;99.90;;;;;;5086673;28;20042;-81
2023/12/25 06:58:32;;;;;;;11.93;5.10;;;10.30;99.90;;;;;;5070406;28;20097;-82
2023/12/25 07:01:00;;;;;;;14.98;5.47;;;10.30;99.90;;;;;;5083216;28;20048;-82
2023/12/25 07:03:25;;;;;;;14.63;5.13;;;10.30;99.90;;;;;;5069602;28;20116;-82
2023/12/25 07:05:51;;;;;;;14.25;6.10;;;10.30;99.90;;;;;;5069584;28;20466;-82
2023/12/25 07:08:17;;;;;;;14.95;6.78;;;10.30;99.90;;;;;;5052964;28;20036;-82
2023/12/25 07:10:46;;;;;;;15.13;5.43;;;10.30;99.90;;;;;;5069348;28;20114;-81
2023/12/25 07:13:11;;;;;;;13.95;5.32;;;10.30;99.90;;;;;;5089475;28;20403;-80
2023/12/25 07:15:38;;;;;;;13.05;5.70;;;10.30;99.90;;;;;;5086853;28;20481;-80
2023/12/25 07:18:05;;;;;;;13.13;5.25;;;10.30;99.90;;;;;;5064292;28;20047;-81
2023/12/25 07:20:31;;;;;;;13.68;5.47;;;10.20;99.90;;;;;;5069487;28;20431;-82
2023/12/25 07:22:56;;;;;;;12.68;5.10;;;10.20;99.90;;;;;;5052672;28;20093;-82
2023/12/25 07:25:22;;;;;;;15.98;5.43;;;10.20;99.90;;;;;;5088328;28;20036;-81
2023/12/25 07:27:48;;;;;;;14.65;5.63;;;10.20;99.90;;;;;;5086710;28;20138;-87
2023/12/25 07:30:13;;;;;;;13.25;5.28;;;10.20;99.90;;;;;;5069226;28;20036;-83
2023/12/25 07:32:40;;;;;;;17.10;5.57;;;10.20;99.90;;;;;;5070092;28;20079;-80
2023/12/25 07:35:07;;;;;;;15.10;5.40;;;10.20;99.90;;;;;;5066940;28;20131;-81
2023/12/25 07:37:32;;;;;;;10.68;5.50;;;10.10;99.90;;;;;;5071295;28;20086;-81
2023/12/25 07:39:58;;;;;;;16.67;6.50;;;10.10;99.90;;;;;;5066556;28;20056;-86
2023/12/25 07:42:23;;;;;;;11.38;5.00;;;10.10;99.90;;;;;;5086454;28;20131;-81
2023/12/25 07:44:49;;;;;;;15.07;5.13;;;10.00;99.90;;;;;;5069637;28;20114;-82
2023/12/25 07:47:15;;;;;;;12.38;5.40;;;10.00;99.90;;;;;;5068668;28;20058;-81
2023/12/25 07:49:40;;;;;;;15.93;5.15;;;10.00;99.90;;;;;;5074874;28;20123;-83
2023/12/25 07:52:06;;;;;;;14.15;5.20;;;10.00;99.90;;;;;;5082639;28;20044;-82
2023/12/25 07:54:31;;;;;;;17.38;5.45;;;10.10;99.90;;;;;;5083682;28;20115;-81
2023/12/25 07:56:57;;;;;;;11.68;5.20;;;10.20;99.90;;;;;;5079688;28;20063;-81
2023/12/25 07:59:23;;;;;;;14.15;4.88;;;10.20;99.90;;;;;;5078162;28;20040;-81
2023/12/25 08:01:48;;;;;;;16.08;6.15;;;10.20;99.90;;;;;;5075515;28;20047;-83
2023/12/25 08:04:14;;;;;;;14.18;4.90;;;10.20;99.90;;;;;;5077702;28;20479;-81
2023/12/25 08:06:40;;;;;;;18.58;5.80;;;10.20;99.90;;;;;;5081433;28;20537;-81
2023/12/25 08:09:05;;;;;;;14.73;5.32;;;10.20;99.90;;;;;;5059664;28;20039;-81
2023/12/25 08:11:31;;;;;;;12.75;5.00;;;10.20;99.90;;;;;;5076487;28;20043;-81
2023/12/25 08:13:56;;;;;;;14.82;5.43;;;10.10;99.90;;;;;;5072211;28;20047;-81
2023/12/25 08:16:22;;;;;;;14.73;5.10;;;10.10;99.90;;;;;;5082737;28;20082;-81
2023/12/25 08:18:48;;;;;;;10.68;5.28;;;10.00;99.90;;;;;;5080481;28;20032;-80
2023/12/25 08:21:13;;;;;;;15.85;5.70;;;10.00;99.90;;;;;;5081714;28;20044;-81
2023/12/25 08:23:41;;;;;;;16.02;5.50;;;9.90;99.90;;;;;;5073316;28;20036;-81
2023/12/25 08:26:07;;;;;;;10.02;4.63;;;9.90;99.90;;;;;;5082021;28;20131;-82
2023/12/25 08:28:33;;;;;;;12.70;4.70;;;9.90;99.90;;;;;;5081578;28;20115;-82
2023/12/25 08:30:59;;;;;;;7.32;4.40;;;9.80;99.90;;;;;;5080755;28;20475;-81
2023/12/25 08:33:28;;;;;;;9.20;3.70;;;9.90;99.90;;;;;;5081057;28;20048;-82
2023/12/25 08:35:53;;;;;;;9.75;4.00;;;9.90;99.90;;;;;;5081902;28;20090;-82
2023/12/25 08:38:19;;;;;;;7.95;3.78;;;9.90;99.90;;;;;;5081742;28;20067;-82
2023/12/25 08:40:44;;;;;;;12.98;4.22;;;9.80;99.90;;;;;;5082557;28;20469;-81
2023/12/25 08:43:10;;;;;;;6.90;4.28;;;9.80;99.90;;;;;;5078451;28;20387;-81
2023/12/25 08:45:36;;;;;;;9.20;4.28;;;9.70;99.90;;;;;;5085917;28;20040;-81
2023/12/25 08:48:01;;;;;;;12.30;4.55;;;9.70;99.90;;;;;;5063118;28;20039;-81
2023/12/25 08:50:27;;;;;;;9.68;4.60;;;9.70;99.90;;;;;;5102121;28;20046;-80
2023/12/25 08:52:53;;;;;;;9.68;4.50;;;9.60;99.90;;;;;;5083095;28;20118;-81
2023/12/25 08:55:18;;;;;;;11.15;4.65;;;9.60;99.90;;;;;;5066229;28;20051;-81
2023/12/25 08:57:44;;;;;;;9.23;4.20;;;9.60;99.90;;;;;;5063508;28;20039;-81
2023/12/25 09:00:10;;;;;;;8.02;4.22;;;9.60;99.90;;;;;;5068910;28;20040;-80
2023/12/25 09:02:37;;;;;;;7.57;4.00;;;9.60;99.90;;;;;;5084430;28;20044;-81
2023/12/25 09:05:03;;;;;;;12.93;4.32;;;9.60;99.90;;;;;;5085457;28;21020;-81
2023/12/25 09:07:28;;;;;;;10.38;4.47;;;9.60;99.90;;;;;;5084578;28;20185;-81
2023/12/25 09:09:58;;;;;;;5.45;3.60;;;9.50;99.90;;;;;;5103862;28;20615;-80
2023/12/25 09:12:23;;;;;;;7.75;3.90;;;9.40;99.90;;;;;;5062256;28;20056;-81
2023/12/25 09:14:49;;;;;;;9.85;4.57;;;9.40;99.90;;;;;;5082862;28;20081;-81
2023/12/25 09:17:16;;;;;;;8.77;4.47;;;9.40;99.90;;;;;;5085993;28;20043;-82
2023/12/25 09:19:42;;;;;;;11.70;4.20;;;9.40;99.90;;;;;;5090886;28;20112;-81
2023/12/25 09:22:08;;;;;;;11.82;5.05;;;9.40;99.90;;;;;;5085167;28;20075;-81
2023/12/25 09:24:33;;;;;;;11.48;4.28;;;9.40;99.90;;;;;;5102072;28;20055;-81
2023/12/25 09:27:00;;;;;;;9.05;4.65;;;9.40;99.90;;;;;;5064305;28;20111;-82
2023/12/25 09:29:27;;;;;;;10.25;4.97;;;9.40;99.90;;;;;;5087662;28;20127;-81
2023/12/25 09:31:52;;;;;;;9.20;4.30;;;9.40;99.90;;;;;;5079853;28;20047;-81
2023/12/25 09:34:18;;;;;;;11.25;4.90;;;9.40;99.90;;;;;;5086676;28;20048;-81
2023/12/25 09:36:44;;;;;;;9.82;4.45;;;9.40;99.90;;;;;;5080865;28;20043;-81
2023/12/25 09:39:09;;;;;;;9.00;4.40;;;9.40;99.90;;;;;;5075367;28;20122;-81
2023/12/25 09:41:36;;;;;;;9.45;5.00;;;9.40;99.90;;;;;;5078248;28;20047;-81
2023/12/25 09:44:02;;;;;;;11.05;4.93;;;9.50;99.90;;;;;;5100728;28;20462;-81
2023/12/25 09:46:28;;;;;;;9.80;4.43;;;9.40;99.90;;;;;;5100691;28;20028;-80
2023/12/25 09:48:55;;;;;;;11.13;7.85;;;9.50;99.90;;;;;;5058609;28;20508;-81
2023/12/25 09:51:23;;;;;;;9.27;5.00;;;9.50;99.90;;;;;;5076602;28;20052;-81
2023/12/25 09:53:49;;;;;;;8.60;4.88;;;9.50;99.90;;;;;;5079960;28;20059;-82
2023/12/25 09:56:16;;;;;;;14.05;4.85;;;9.60;99.90;;;;;;5078921;28;20052;-81
2023/12/25 09:58:43;;;;;;;12.30;4.97;;;9.60;99.90;;;;;;5080385;28;20043;-81
2023/12/25 10:01:11;;;;;;;10.68;4.63;;;9.60;99.90;;;;;;5077369;28;20052;-82
2023/12/25 10:03:39;;;;;;;9.77;4.50;;;9.70;99.90;;;;;;5067819;28;20066;-82
2023/12/25 10:06:06;;;;;;;15.38;4.90;;;9.70;99.90;;;;;;5076174;28;20054;-82
2023/12/25 10:08:31;;;;;;;8.90;4.20;;;9.70;99.90;;;;;;5074067;28;20059;-81
2023/12/25 10:10:57;;;;;;;12.98;4.53;;;9.70;99.90;;;;;;5076629;28;20036;-81
2023/12/25 10:13:25;;;;;;;8.98;5.20;;;9.70;99.90;;;;;;5073759;28;20036;-81
2023/12/25 10:15:50;;;;;;;10.98;4.70;;;9.70;99.90;;;;;;5077326;28;20601;-82
2023/12/25 10:18:18;;;;;;;15.38;4.95;;;9.70;99.90;;;;;;5072967;28;20857;-81
2023/12/25 10:20:59;;;;;;;12.60;5.10;;;9.70;99.90;;;;;;5074712;28;20553;-81
2023/12/25 10:23:32;;;;;;;16.38;5.38;;;9.70;99.90;;;;;;5077351;28;20071;-82
2023/12/25 10:26:01;;;;;;;15.07;5.90;;;9.80;99.90;;;;;;5074658;28;20040;-82
2023/12/25 10:28:28;;;;;;;15.35;5.55;;;9.80;99.90;;;;;;5077447;28;20045;-82
2023/12/25 10:31:02;;;;;;;11.45;4.63;;;9.80;99.90;;;;;;5078385;28;20123;-82
2023/12/25 10:33:28;;;;;;;12.23;5.47;;;9.80;99.90;;;;;;5076927;28;20036;-82
2023/12/25 10:36:23;;;;;;;13.10;5.10;;;9.80;99.90;;;;;;5075221;28;20088;-81
2023/12/25 10:38:49;;;;;;;10.25;4.95;;;9.90;99.90;;;;;;5063437;28;20044;-82
2023/12/25 10:41:22;;;;;;;14.93;4.80;;;9.90;99.90;;;;;;5072608;28;20820;-81
2023/12/25 10:43:56;;;;;;;10.55;4.72;;;9.90;99.90;;;;;;5058488;28;20044;-82
2023/12/25 10:46:23;;;;;;;;;;;9.90;99.90;;;;;;5074395;28;20036;-82
2023/12/25 10:48:51;;;;;;;11.63;4.88;;;9.90;99.90;;;;;;5074336;28;19924;-81
2023/12/25 10:51:24;;;;;;;14.90;4.80;;;9.90;99.90;;;;;;5076215;28;20051;-82
2023/12/25 10:53:51;;;;;;;12.27;4.50;;;10.00;99.90;;;;;;5075731;28;20127;-82
2023/12/25 10:56:20;;;;;;;14.48;4.82;;;10.00;99.90;;;;;;5078621;28;20148;-82
2023/12/25 10:58:49;;;;;;;17.17;6.10;;;10.00;99.90;;;;;;5072952;28;20040;-82
2023/12/25 11:01:21;;;;;;;12.52;4.78;;;10.00;99.90;;;;;;5074622;28;20045;-82
2023/12/25 11:03:47;;;;;;;15.10;4.65;;;10.00;99.90;;;;;;5074667;28;20040;-82
2023/12/25 11:06:13;;;;;;;11.20;4.32;;;10.00;99.90;;;;;;5077044;28;20392;-82
2023/12/25 11:08:43;;;;;;;15.45;4.90;;;10.00;99.90;;;;;;5075336;28;20418;-82
2023/12/25 11:11:11;;;;;;;10.43;4.93;;;9.90;99.90;;;;;;5059453;28;20055;-81
2023/12/25 11:13:38;;;;;;;13.95;5.03;;;10.00;99.90;;;;;;5074103;28;20193;-82
2023/12/25 11:16:05;;;;;;;17.92;4.80;;;10.00;99.90;;;;;;5079211;28;20077;-82
2023/12/25 11:18:35;;;;;;;14.73;5.15;;;10.00;99.90;;;;;;5079930;28;20119;-82
2023/12/25 11:21:08;;;;;;;16.02;5.20;;;10.00;99.90;;;;;;5083763;28;20055;-82
2023/12/25 11:23:36;;;;;;;16.10;6.03;;;10.00;99.90;;;;;;5048156;28;20039;-81
2023/12/25 11:26:06;;;;;;;13.13;4.97;;;10.00;99.90;;;;;;5062184;28;20046;-82
2023/12/25 11:28:36;;;;;;;14.85;4.60;;;10.00;99.90;;;;;;5076389;28;20058;-82
2023/12/25 11:31:02;;;;;;;14.57;4.85;;;10.00;99.90;;;;;;5079646;28;20063;-82
2023/12/25 11:33:28;;;;;;;17.70;4.97;;;10.00;99.90;;;;;;5084421;28;20583;-82
2023/12/25 11:36:01;;;;;;;12.60;5.05;;;10.10;99.90;;;;;;5075545;28;20136;-82
2023/12/25 11:38:33;;;;;;;19.67;5.13;;;10.10;99.90;;;;;;5061016;28;20075;-82
2023/12/25 11:41:01;;;;;;;13.75;5.25;;;10.10;99.90;;;;;;5079185;28;20066;-82
2023/12/25 11:43:31;;;;;;;15.57;5.70;;;10.10;99.90;;;;;;5061868;28;20036;-82
2023/12/25 11:46:00;;;;;;;20.08;5.88;;;10.20;99.90;;;;;;5080844;28;20412;-82
2023/12/25 11:48:28;;;;;;;12.55;4.93;;;10.20;99.90;;;;;;5068073;28;20493;-82
2023/12/25 11:51:03;;;;;;;16.67;5.97;;;10.20;99.90;;;;;;5083524;28;20119;-82
2023/12/25 11:53:39;;;;;;;16.02;5.38;;;10.20;99.90;;;;;;5050971;28;20032;-82
2023/12/25 11:56:07;;;;;;;17.13;5.38;;;10.20;99.90;;;;;;5051067;28;20028;-82
2023/12/25 11:58:33;;;;;;;15.73;5.70;;;10.10;99.90;;;;;;5078941;28;20032;-82
2023/12/25 12:01:03;;;;;;;15.02;5.95;;;10.10;99.90;;;;;;5066494;28;20089;-82
2023/12/25 12:03:29;;;;;;;15.80;5.38;;;10.10;99.90;;;;;;5057809;28;20512;-82
2023/12/25 12:05:55;;;;;;;14.43;5.38;;;10.10;99.90;;;;;;5058751;28;20127;-82
2023/12/25 12:08:20;;;;;;;17.27;5.25;;;10.10;99.90;;;;;;5046476;28;20091;-81
2023/12/25 12:10:46;;;;;;;19.27;5.03;;;10.10;99.90;;;;;;5060978;28;20036;-82
2023/12/25 12:13:12;;;;;;;19.38;5.93;;;10.20;99.90;;;;;;5082813;28;20036;-82
2023/12/25 12:15:38;;;;;;;21.50;5.88;;;10.20;99.90;;;;;;5061668;28;20089;-83
2023/12/25 12:18:05;;;;;;;16.00;5.90;;;10.20;99.90;;;;;;5047220;28;20112;-82
2023/12/25 12:20:30;;;;;;;22.73;5.97;;;10.20;99.90;;;;;;5067855;28;20055;-82
2023/12/25 12:22:57;;;;;;;19.20;6.10;;;10.20;99.90;;;;;;5067565;28;20055;-81
2023/12/25 12:25:23;;;;;;;17.15;6.00;;;10.20;99.90;;;;;;5065091;28;20048;-82
2023/12/25 12:27:49;;;;;;;22.15;6.65;;;10.10;99.90;;;;;;5047227;28;20050;-82
2023/12/25 12:30:16;;;;;;;20.77;5.82;;;10.10;99.90;;;;;;5062516;28;20044;-82
2023/12/25 12:32:42;;;;;;;20.05;6.20;;;10.10;99.90;;;;;;5066873;28;20051;-82
2023/12/25 12:35:08;;;;;;;25.45;6.95;;;10.00;99.90;;;;;;5065698;28;20052;-82